Time;durP1;ratioP1;P1;durP2;ratioP2;P2;SDS_P1;SDS_P2;PMS_P1;PMS_P2;Temp;Humidity;BMP_temperature;BMP_pressure;BME280_temperature;BME280_humidity;BME280_pressure;Samples;Min_cycle;Max_cycle;Signal;HPM_P1;HPM_P2
2023/01/18 00:00:37;;;;;;;35.92;23.08;;;4.70;70.30;;;;;;5038074;28;20232;-72
2023/01/18 00:03:08;;;;;;;21.73;10.68;;;4.70;70.10;;;;;;5045696;28;20208;-71
2023/01/18 00:05:39;;;;;;;15.40;6.25;;;4.70;70.00;;;;;;5042449;28;20201;-70
2023/01/18 00:08:08;;;;;;;15.05;8.25;;;4.70;70.00;;;;;;5036926;28;20323;-70
2023/01/18 00:10:36;;;;;;;11.05;6.72;;;4.60;70.00;;;;;;5040943;28;20291;-71
2023/01/18 00:13:06;;;;;;;14.70;7.05;;;4.60;69.90;;;;;;5062652;28;20213;-70
2023/01/18 00:15:34;;;;;;;12.00;6.05;;;4.60;70.00;;;;;;5038283;28;20220;-70
2023/01/18 00:18:03;;;;;;;24.20;10.10;;;4.60;70.00;;;;;;5048816;28;20760;-71
2023/01/18 00:20:32;;;;;;;15.10;7.00;;;4.60;70.10;;;;;;5052618;28;20258;-71
2023/01/18 00:23:01;;;;;;;13.52;6.55;;;4.60;70.10;;;;;;5045669;28;20245;-70
2023/01/18 00:25:30;;;;;;;9.48;5.60;;;4.60;70.10;;;;;;5044389;28;20201;-71
2023/01/18 00:27:57;;;;;;;11.50;5.53;;;4.70;70.00;;;;;;5046782;28;20901;-69
2023/01/18 00:30:28;;;;;;;11.65;5.80;;;4.70;70.00;;;;;;5048121;28;20212;-70
2023/01/18 00:32:58;;;;;;;9.68;5.68;;;4.70;70.00;;;;;;5046608;28;20209;-71
2023/01/18 00:35:27;;;;;;;12.30;5.97;;;4.70;70.00;;;;;;5044342;28;20203;-70
2023/01/18 00:37:55;;;;;;;10.30;5.70;;;4.70;70.00;;;;;;5047902;28;20217;-70
2023/01/18 00:40:27;;;;;;;9.00;5.38;;;4.70;70.00;;;;;;5046358;28;20831;-70
2023/01/18 00:45:42;;;;;;;9.05;6.55;;;4.70;69.90;;;;;;5046628;28;20214;-70
2023/01/18 00:48:10;;;;;;;13.43;6.68;;;4.70;69.90;;;;;;5064159;28;20719;-70
2023/01/18 00:50:38;;;;;;;14.23;7.85;;;4.70;69.90;;;;;;5048972;28;20207;-70
2023/01/18 00:53:06;;;;;;;9.13;4.93;;;4.70;69.80;;;;;;5047309;28;20657;-70
2023/01/18 00:55:33;;;;;;;11.00;4.85;;;4.70;69.90;;;;;;5053792;28;20217;-70
2023/01/18 00:58:02;;;;;;;14.00;5.97;;;4.70;69.90;;;;;;5049313;28;20224;-70
2023/01/18 01:00:31;;;;;;;19.65;8.77;;;4.70;70.00;;;;;;5051326;28;20241;-71
2023/01/18 01:03:00;;;;;;;16.63;8.43;;;4.70;70.00;;;;;;5048108;28;20211;-70
2023/01/18 01:08:20;;;;;;;18.70;8.15;;;4.70;69.90;;;;;;5055991;28;20227;-70
2023/01/18 01:10:50;;;;;;;12.02;6.90;;;4.70;69.90;;;;;;5051909;28;20254;-71
2023/01/18 01:27:12;;;;;;;14.15;5.65;;;4.80;70.10;;;;;;5053179;28;20207;-71
2023/01/18 01:29:40;;;;;;;9.15;5.65;;;4.90;70.20;;;;;;5058572;28;20232;-71
2023/01/18 01:32:09;;;;;;;9.73;4.60;;;4.90;70.20;;;;;;5050625;28;20748;-70
2023/01/18 01:34:38;;;;;;;9.65;4.20;;;4.90;70.30;;;;;;5051795;28;20215;-71
2023/01/18 01:37:06;;;;;;;10.88;5.00;;;4.90;70.30;;;;;;5054664;28;21022;-71
2023/01/18 01:39:34;;;;;;;18.42;5.80;;;4.90;70.00;;;;;;5044616;28;20235;-70
2023/01/18 01:42:02;;;;;;;9.85;6.07;;;4.80;69.90;;;;;;5049032;28;20203;-71
2023/01/18 01:44:54;;;;;;;8.75;5.55;;;4.80;70.00;;;;;;5044666;28;20576;-71
2023/01/18 01:47:30;;;;;;;9.68;5.22;;;4.80;70.20;;;;;;5027128;28;20208;-72
2023/01/18 01:50:04;;;;;;;10.60;4.53;;;4.80;70.20;;;;;;5052746;28;20208;-72
2023/01/18 01:52:36;;;;;;;7.63;3.47;;;4.80;70.20;;;;;;5052260;28;20223;-69
2023/01/18 01:55:08;;;;;;;11.10;5.05;;;4.80;70.20;;;;;;5048312;28;20196;-69
2023/01/18 01:57:39;;;;;;;7.60;4.20;;;4.80;70.20;;;;;;5045400;28;20253;-71
2023/01/18 02:00:11;;;;;;;7.90;4.05;;;4.80;70.20;;;;;;5045826;28;20767;-70
2023/01/18 02:02:42;;;;;;;8.50;4.20;;;4.90;70.20;;;;;;5040083;28;20205;-71
2023/01/18 02:05:13;;;;;;;8.93;4.60;;;4.90;70.20;;;;;;5045446;28;20216;-71
2023/01/18 02:07:42;;;;;;;9.43;4.68;;;4.90;70.20;;;;;;5049771;28;20236;-69
2023/01/18 02:10:11;;;;;;;8.25;4.30;;;4.90;70.30;;;;;;5049085;28;20329;-71
2023/01/18 02:12:40;;;;;;;9.50;4.47;;;4.90;70.30;;;;;;5049692;28;20681;-70
2023/01/18 02:15:09;;;;;;;9.10;4.57;;;4.90;70.30;;;;;;5046372;28;20213;-71
2023/01/18 02:17:58;;;;;;;9.20;4.70;;;4.90;70.30;;;;;;5035614;28;21116;-71
2023/01/18 02:21:15;;;;;;;8.30;4.88;;;4.90;70.40;;;;;;5046425;28;20204;-70
2023/01/18 02:24:19;;;;;;;9.00;4.90;;;4.90;70.40;;;;;;5043679;28;20245;-69
2023/01/18 02:27:11;;;;;;;11.95;5.15;;;4.80;70.50;;;;;;5040139;28;20211;-70
2023/01/18 02:30:06;;;;;;;7.65;4.70;;;4.80;70.50;;;;;;5043032;28;20216;-70
2023/01/18 02:32:47;;;;;;;11.63;5.50;;;4.80;70.60;;;;;;5043642;28;20710;-69
2023/01/18 02:35:21;;;;;;;11.90;5.65;;;4.80;70.70;;;;;;5043138;28;20188;-71
2023/01/18 02:37:59;;;;;;;8.30;4.93;;;4.80;70.80;;;;;;5046001;28;20211;-71
2023/01/18 02:40:33;;;;;;;9.48;4.97;;;4.80;70.80;;;;;;5037092;28;20714;-70
2023/01/18 02:48:40;;;;;;;8.30;4.55;;;4.70;71.00;;;;;;5034569;28;21080;-69
2023/01/18 02:51:09;;;;;;;9.52;5.05;;;4.70;70.90;;;;;;5043278;28;20674;-71
2023/01/18 02:53:40;;;;;;;8.63;4.90;;;4.70;71.00;;;;;;5040172;28;20216;-71
2023/01/18 02:56:12;;;;;;;6.88;4.38;;;4.60;71.00;;;;;;5046288;28;20352;-70
2023/01/18 02:58:45;;;;;;;11.35;5.38;;;4.50;71.10;;;;;;5047190;28;20236;-71
2023/01/18 03:01:21;;;;;;;8.07;5.00;;;4.40;71.20;;;;;;5043282;28;20215;-71
2023/01/18 03:03:51;;;;;;;15.05;5.55;;;4.40;71.40;;;;;;5045073;28;20200;-70
2023/01/18 03:06:23;;;;;;;10.43;5.80;;;4.30;71.40;;;;;;5040966;28;20245;-69
2023/01/18 03:08:53;;;;;;;8.93;5.40;;;4.40;71.60;;;;;;5037584;28;20228;-70
2023/01/18 03:11:32;;;;;;;8.05;5.15;;;4.40;71.70;;;;;;5041083;28;20259;-69
2023/01/18 03:14:09;;;;;;;9.80;5.40;;;4.40;71.80;;;;;;5043198;28;20208;-71
2023/01/18 03:16:56;;;;;;;10.23;5.45;;;4.40;71.70;;;;;;5044290;28;20649;-71
2023/01/18 03:23:36;;;;;;;8.02;5.20;;;4.30;72.00;;;;;;5047244;28;20212;-71
2023/01/18 03:25:09;;;;;;;8.77;5.28;;;4.30;72.10;;;;;;5049465;28;20268;-70
2023/01/18 03:35:59;;;;;;;8.13;5.25;;;4.30;72.20;;;;;;5044039;28;20972;-69
2023/01/18 03:38:28;;;;;;;8.80;5.65;;;4.30;72.30;;;;;;5041647;28;20228;-70
2023/01/18 03:40:58;;;;;;;10.77;6.40;;;4.30;72.40;;;;;;5041107;28;20227;-70
2023/01/18 03:43:35;;;;;;;10.57;6.00;;;4.20;72.40;;;;;;5047369;28;20188;-69
2023/01/18 03:46:03;;;;;;;11.57;6.40;;;4.20;72.40;;;;;;5047905;28;20203;-70
2023/01/18 03:48:35;;;;;;;8.68;5.72;;;4.20;72.60;;;;;;5043025;28;20322;-70
2023/01/18 03:51:12;;;;;;;9.85;5.72;;;4.20;72.70;;;;;;5047164;28;20203;-70
2023/01/18 03:53:46;;;;;;;10.07;6.00;;;4.20;72.70;;;;;;5046352;28;20277;-70
2023/01/18 03:56:20;;;;;;;11.00;6.00;;;4.10;72.80;;;;;;5055359;28;20907;-70
2023/01/18 03:58:51;;;;;;;10.05;5.78;;;4.10;73.00;;;;;;5051255;28;20222;-69
2023/01/18 04:01:19;;;;;;;10.00;5.50;;;4.10;73.10;;;;;;5055789;28;20216;-68
2023/01/18 04:03:48;;;;;;;13.15;6.40;;;4.20;73.10;;;;;;5047967;28;20221;-70
2023/01/18 04:06:16;;;;;;;10.30;5.60;;;4.10;73.10;;;;;;5051211;28;20196;-70
2023/01/18 04:08:44;;;;;;;11.77;5.25;;;4.10;73.20;;;;;;5050861;28;20693;-70
2023/01/18 04:11:12;;;;;;;7.88;5.25;;;4.10;73.20;;;;;;5045621;28;21081;-70
2023/01/18 04:13:40;;;;;;;9.40;5.80;;;4.10;73.40;;;;;;5045473;28;20942;-70
2023/01/18 04:16:08;;;;;;;12.88;6.90;;;4.10;73.40;;;;;;5045214;28;20251;-71
2023/01/18 04:18:36;;;;;;;9.65;6.20;;;4.10;73.50;;;;;;5048377;28;20776;-70
2023/01/18 04:21:06;;;;;;;13.57;7.10;;;4.10;73.50;;;;;;5048797;28;20211;-70
2023/01/18 04:23:33;;;;;;;15.40;7.22;;;4.10;73.60;;;;;;5046993;28;20200;-71
2023/01/18 04:26:01;;;;;;;9.38;6.35;;;4.10;73.60;;;;;;5044748;28;20246;-70
2023/01/18 04:28:29;;;;;;;9.85;5.82;;;4.10;73.70;;;;;;5043703;28;20220;-71
2023/01/18 04:30:57;;;;;;;9.48;4.68;;;4.10;73.60;;;;;;5045057;28;20269;-70
2023/01/18 04:33:26;;;;;;;10.68;4.95;;;4.10;73.60;;;;;;5045273;28;20204;-70
2023/01/18 04:35:54;;;;;;;9.32;4.95;;;4.10;73.70;;;;;;5042432;28;20733;-70
2023/01/18 04:38:23;;;;;;;10.45;5.30;;;4.10;73.80;;;;;;5046221;28;20273;-71
2023/01/18 04:40:51;;;;;;;7.10;4.40;;;4.10;73.90;;;;;;5051872;28;20661;-70
2023/01/18 04:43:19;;;;;;;9.77;5.03;;;4.10;73.90;;;;;;5050664;28;20330;-70
2023/01/18 04:45:54;;;;;;;8.63;4.82;;;4.10;73.80;;;;;;5050457;28;20209;-70
2023/01/18 04:48:22;;;;;;;7.18;4.85;;;4.10;73.90;;;;;;5046212;28;20309;-70
2023/01/18 04:50:50;;;;;;;9.57;4.70;;;4.10;73.90;;;;;;5048808;28;20247;-70
2023/01/18 04:53:18;;;;;;;7.93;4.80;;;4.10;74.00;;;;;;5048014;28;20204;-71
2023/01/18 04:55:48;;;;;;;7.97;4.60;;;4.20;74.00;;;;;;5050833;28;20235;-69
2023/01/18 04:58:16;;;;;;;10.15;5.40;;;4.20;74.00;;;;;;5049630;28;20686;-69
2023/01/18 05:00:44;;;;;;;9.85;5.55;;;4.20;74.00;;;;;;5050870;28;20199;-71
2023/01/18 05:03:13;;;;;;;9.88;5.90;;;4.10;73.90;;;;;;5050975;28;20203;-69
2023/01/18 05:05:41;;;;;;;9.52;5.03;;;4.10;74.10;;;;;;5049676;28;20197;-70
2023/01/18 05:08:08;;;;;;;10.20;5.45;;;4.10;74.10;;;;;;5049561;28;20299;-71
2023/01/18 05:10:36;;;;;;;9.40;5.53;;;4.10;74.20;;;;;;5049704;28;20227;-71
2023/01/18 05:13:06;;;;;;;9.23;5.32;;;4.20;74.20;;;;;;5048161;28;20286;-71
2023/01/18 05:15:34;;;;;;;9.23;5.55;;;4.20;74.30;;;;;;5049090;28;20216;-68
2023/01/18 05:18:02;;;;;;;10.10;5.45;;;4.20;74.10;;;;;;5047185;28;20236;-69
2023/01/18 05:20:30;;;;;;;9.60;5.70;;;4.10;74.30;;;;;;5044156;28;20713;-70
2023/01/18 05:22:58;;;;;;;8.90;5.38;;;4.10;74.30;;;;;;5046815;28;20204;-71
2023/01/18 05:25:27;;;;;;;9.10;5.20;;;4.10;74.20;;;;;;5045968;28;20219;-71
2023/01/18 05:27:54;;;;;;;10.68;6.32;;;4.10;74.30;;;;;;5049237;28;20232;-71
2023/01/18 05:30:24;;;;;;;10.38;6.20;;;4.10;74.30;;;;;;5047226;28;20251;-70
2023/01/18 05:32:52;;;;;;;10.38;5.38;;;4.00;74.30;;;;;;5047334;28;20252;-70
2023/01/18 05:35:19;;;;;;;9.40;6.10;;;4.00;74.30;;;;;;5041669;28;20193;-71
2023/01/18 05:37:49;;;;;;;11.20;5.50;;;4.00;74.30;;;;;;5049330;28;20212;-70
2023/01/18 05:40:17;;;;;;;13.23;7.65;;;4.00;74.60;;;;;;5051603;28;20254;-70
2023/01/18 05:42:45;;;;;;;8.95;5.70;;;4.00;74.70;;;;;;5053385;28;20207;-70
2023/01/18 05:45:13;;;;;;;10.13;5.97;;;4.00;74.70;;;;;;5053542;28;20208;-70
2023/01/18 05:47:42;;;;;;;10.27;5.63;;;4.00;74.70;;;;;;5054683;28;20221;-70
2023/01/18 05:50:11;;;;;;;11.02;6.72;;;4.00;74.80;;;;;;5049718;28;20207;-71
2023/01/18 05:52:38;;;;;;;10.75;6.22;;;4.00;74.90;;;;;;5047710;28;20725;-71
2023/01/18 05:55:07;;;;;;;9.48;5.55;;;4.00;74.90;;;;;;5041277;28;20552;-70
2023/01/18 05:57:35;;;;;;;10.00;5.90;;;4.00;74.80;;;;;;5043580;28;20201;-72
2023/01/18 06:00:12;;;;;;;8.77;5.32;;;4.00;74.90;;;;;;5037303;28;20206;-70
2023/01/18 06:02:42;;;;;;;13.10;6.40;;;4.00;74.80;;;;;;5056927;28;20204;-70
2023/01/18 06:05:10;;;;;;;11.13;7.00;;;4.00;74.70;;;;;;5043261;28;20192;-70
2023/01/18 06:07:38;;;;;;;10.65;6.75;;;3.90;74.90;;;;;;5042254;28;20370;-72
2023/01/18 06:10:07;;;;;;;10.77;6.60;;;3.90;75.00;;;;;;5039372;28;20201;-71
2023/01/18 06:12:35;;;;;;;16.52;6.50;;;3.90;75.00;;;;;;5042619;28;20312;-70
2023/01/18 06:15:03;;;;;;;9.00;5.55;;;3.90;75.10;;;;;;5035060;28;20259;-71
2023/01/18 06:17:31;;;;;;;10.98;6.53;;;3.90;74.90;;;;;;5041335;28;20633;-70
2023/01/18 06:20:00;;;;;;;9.07;6.10;;;3.90;75.10;;;;;;5046171;28;20201;-70
2023/01/18 06:22:28;;;;;;;14.48;5.55;;;3.90;75.30;;;;;;5047734;28;20202;-70
2023/01/18 06:24:56;;;;;;;10.02;6.25;;;3.90;75.20;;;;;;5050350;28;20200;-71
2023/01/18 06:27:24;;;;;;;15.48;6.22;;;3.90;75.30;;;;;;5048204;28;20920;-70
2023/01/18 06:29:52;;;;;;;8.90;5.20;;;3.90;75.30;;;;;;5044224;28;20204;-71
2023/01/18 06:32:21;;;;;;;8.23;5.50;;;3.90;75.30;;;;;;5051176;28;20956;-70
2023/01/18 06:34:49;;;;;;;12.43;6.75;;;3.90;75.30;;;;;;5052746;28;20215;-71
2023/01/18 06:37:18;;;;;;;10.27;6.13;;;3.90;75.40;;;;;;5043053;28;20610;-70
2023/01/18 06:39:46;;;;;;;9.05;5.60;;;3.90;75.40;;;;;;5046895;28;20197;-70
2023/01/18 06:42:14;;;;;;;11.02;6.38;;;3.90;75.20;;;;;;5044226;28;20196;-70
2023/01/18 06:44:42;;;;;;;8.93;5.50;;;3.80;75.40;;;;;;5047860;28;20196;-70
2023/01/18 06:47:10;;;;;;;9.45;5.50;;;3.80;75.50;;;;;;5048484;28;20211;-69
2023/01/18 06:49:38;;;;;;;11.05;6.18;;;3.90;75.70;;;;;;5047693;28;20282;-70
2023/01/18 06:52:06;;;;;;;8.95;6.00;;;3.80;75.60;;;;;;5044668;28;20196;-70
2023/01/18 06:54:36;;;;;;;10.88;5.97;;;3.80;75.60;;;;;;5048550;28;20224;-70
2023/01/18 06:57:04;;;;;;;9.15;5.78;;;3.70;75.70;;;;;;5060859;28;20545;-71
2023/01/18 06:59:32;;;;;;;15.15;6.88;;;3.70;75.80;;;;;;5056497;28;20238;-71
2023/01/18 07:02:00;;;;;;;10.63;6.20;;;3.70;75.90;;;;;;5043857;28;20208;-71
2023/01/18 07:04:28;;;;;;;11.18;6.32;;;3.60;75.90;;;;;;5043032;28;20228;-71
2023/01/18 07:06:56;;;;;;;11.80;6.57;;;3.60;76.10;;;;;;5042834;28;20833;-71
2023/01/18 07:09:24;;;;;;;10.38;6.10;;;3.60;76.10;;;;;;5045979;28;20270;-71
2023/01/18 07:11:53;;;;;;;13.20;6.20;;;3.60;76.10;;;;;;5043178;28;20423;-71
2023/01/18 07:14:21;;;;;;;10.45;6.80;;;3.60;76.20;;;;;;5043806;28;20223;-71
2023/01/18 07:16:49;;;;;;;11.35;5.85;;;3.60;76.50;;;;;;5048152;28;20222;-70
2023/01/18 07:19:17;;;;;;;9.30;6.07;;;3.60;76.30;;;;;;5048038;28;20921;-70
2023/01/18 07:21:45;;;;;;;11.32;6.30;;;3.60;76.40;;;;;;5046399;28;20249;-71
2023/01/18 07:24:13;;;;;;;10.40;5.40;;;3.50;76.40;;;;;;5049222;28;20291;-71
2023/01/18 07:26:41;;;;;;;9.55;5.18;;;3.50;76.40;;;;;;5053479;28;20199;-70
2023/01/18 07:29:10;;;;;;;9.60;5.70;;;3.50;76.60;;;;;;5057156;28;20286;-72
2023/01/18 07:31:39;;;;;;;10.50;7.00;;;3.50;76.60;;;;;;5055792;28;20200;-71
2023/01/18 07:34:08;;;;;;;10.00;6.57;;;3.50;76.50;;;;;;5056487;28;20204;-70
2023/01/18 07:36:38;;;;;;;10.82;5.97;;;3.50;76.70;;;;;;5058609;28;20544;-71
2023/01/18 07:39:06;;;;;;;10.60;5.40;;;3.50;76.80;;;;;;5052174;28;20720;-70
2023/01/18 07:41:34;;;;;;;9.70;5.82;;;3.50;77.10;;;;;;5046917;28;20258;-70
2023/01/18 07:44:02;;;;;;;14.52;5.65;;;3.50;76.90;;;;;;5048974;28;20206;-70
2023/01/18 07:46:32;;;;;;;10.75;5.97;;;3.50;76.80;;;;;;5047783;28;20752;-70
2023/01/18 07:49:01;;;;;;;8.77;4.80;;;3.50;76.90;;;;;;5051930;28;20299;-70
2023/01/18 07:51:29;;;;;;;10.05;6.45;;;3.50;77.00;;;;;;5057033;28;20196;-70
2023/01/18 07:53:57;;;;;;;11.60;6.30;;;3.40;77.10;;;;;;5058490;28;20629;-72
2023/01/18 07:56:26;;;;;;;10.07;5.90;;;3.50;77.40;;;;;;5043636;28;20254;-72
2023/01/18 07:58:54;;;;;;;9.77;5.63;;;3.50;77.30;;;;;;5054532;28;20228;-70
2023/01/18 08:01:23;;;;;;;10.20;5.82;;;3.60;77.30;;;;;;5061128;28;20218;-71
2023/01/18 08:03:53;;;;;;;9.90;5.93;;;3.60;77.20;;;;;;5052494;28;20208;-71
2023/01/18 08:06:24;;;;;;;10.15;6.03;;;3.60;77.40;;;;;;5053819;28;20905;-71
2023/01/18 08:08:54;;;;;;;11.68;6.47;;;3.60;77.30;;;;;;5055146;28;20811;-71
2023/01/18 08:11:22;;;;;;;8.85;5.70;;;3.60;77.50;;;;;;5047593;28;20209;-71
2023/01/18 08:13:51;;;;;;;10.73;5.93;;;3.60;77.40;;;;;;5048019;28;20204;-71
2023/01/18 08:16:19;;;;;;;11.18;5.55;;;3.60;77.60;;;;;;5053308;28;20686;-71
2023/01/18 08:18:49;;;;;;;10.65;5.60;;;3.70;77.60;;;;;;5048597;28;20259;-70
2023/01/18 08:21:18;;;;;;;9.52;6.00;;;3.70;77.70;;;;;;5049948;28;20215;-72
2023/01/18 08:23:46;;;;;;;9.68;5.82;;;3.70;77.80;;;;;;5048934;28;20249;-71
2023/01/18 08:26:14;;;;;;;9.43;5.35;;;3.70;77.60;;;;;;5047036;28;20190;-71
2023/01/18 08:28:43;;;;;;;11.50;6.43;;;3.70;77.60;;;;;;5047519;28;20814;-71
2023/01/18 08:31:14;;;;;;;18.20;6.80;;;3.70;77.50;;;;;;5052186;28;20224;-70
2023/01/18 08:33:44;;;;;;;11.32;5.63;;;3.70;77.70;;;;;;5056286;28;20204;-71
2023/01/18 08:36:14;;;;;;;11.43;5.60;;;3.70;77.80;;;;;;5053674;28;20605;-70
2023/01/18 08:38:47;;;;;;;10.70;5.80;;;3.70;77.80;;;;;;5049983;28;20282;-70
2023/01/18 08:41:15;;;;;;;10.80;5.90;;;3.80;77.70;;;;;;5050012;28;20204;-71
2023/01/18 08:43:46;;;;;;;12.15;6.95;;;3.80;77.80;;;;;;5045872;28;20367;-71
2023/01/18 08:46:14;;;;;;;11.90;7.00;;;3.80;77.80;;;;;;5048652;28;20207;-71
2023/01/18 08:48:42;;;;;;;13.73;7.05;;;3.80;77.60;;;;;;5048354;28;20223;-71
2023/01/18 08:51:10;;;;;;;12.27;7.25;;;3.80;77.70;;;;;;5050843;28;20196;-71
2023/01/18 08:53:39;;;;;;;10.15;6.47;;;3.80;77.80;;;;;;5050624;28;20274;-72
2023/01/18 08:56:09;;;;;;;13.48;7.35;;;3.80;77.80;;;;;;5050471;28;20216;-71
2023/01/18 08:58:37;;;;;;;12.98;6.43;;;3.80;77.70;;;;;;5051516;28;20223;-71
2023/01/18 09:01:05;;;;;;;12.52;7.43;;;3.80;77.80;;;;;;5048951;28;20204;-70
2023/01/18 09:03:34;;;;;;;14.55;7.80;;;3.80;77.90;;;;;;5042812;28;20205;-71
2023/01/18 09:06:03;;;;;;;13.05;7.00;;;3.80;77.70;;;;;;5042736;28;20197;-70
2023/01/18 09:08:31;;;;;;;16.50;8.90;;;3.80;77.80;;;;;;5045319;28;20237;-70
2023/01/18 09:11:02;;;;;;;15.23;8.45;;;3.70;77.90;;;;;;5043194;28;20218;-72
2023/01/18 09:13:32;;;;;;;13.00;7.82;;;3.70;78.00;;;;;;5058836;28;20617;-71
2023/01/18 09:16:01;;;;;;;11.80;7.70;;;3.80;78.00;;;;;;5056239;28;20285;-71
2023/01/18 09:18:29;;;;;;;13.82;7.55;;;3.80;78.00;;;;;;5049659;28;20292;-72
2023/01/18 09:20:58;;;;;;;13.95;8.57;;;3.80;78.10;;;;;;5053327;28;20631;-70
2023/01/18 09:23:26;;;;;;;17.88;8.27;;;3.80;78.10;;;;;;5053396;28;20600;-71
2023/01/18 09:26:01;;;;;;;12.18;7.40;;;3.90;78.20;;;;;;5052138;28;20209;-70
2023/01/18 09:28:31;;;;;;;15.40;8.07;;;3.90;78.10;;;;;;5048839;28;20292;-70
2023/01/18 09:31:00;;;;;;;15.88;7.43;;;3.90;78.10;;;;;;5052366;28;20200;-71
2023/01/18 09:33:28;;;;;;;13.10;7.47;;;3.90;78.20;;;;;;5048616;28;20189;-72
2023/01/18 09:36:08;;;;;;;14.20;7.90;;;4.00;78.20;;;;;;5050586;28;20208;-72
2023/01/18 09:38:37;;;;;;;13.07;7.70;;;4.00;78.20;;;;;;5054842;28;20219;-70
2023/01/18 09:41:07;;;;;;;17.20;9.07;;;4.00;78.20;;;;;;5046649;28;20212;-71
2023/01/18 09:43:42;;;;;;;18.13;8.23;;;4.00;78.20;;;;;;5047465;28;20205;-71
2023/01/18 09:46:18;;;;;;;15.13;7.50;;;4.00;78.20;;;;;;5047418;28;20192;-71
2023/01/18 09:48:53;;;;;;;12.60;8.02;;;4.00;78.30;;;;;;5045347;28;20371;-71
2023/01/18 09:51:25;;;;;;;14.68;9.15;;;4.00;78.20;;;;;;5063137;28;20611;-70
2023/01/18 09:54:08;;;;;;;17.90;8.93;;;4.00;78.30;;;;;;5048976;28;20196;-72
2023/01/18 09:56:41;;;;;;;15.05;8.25;;;4.10;78.30;;;;;;5046541;28;20236;-71
2023/01/18 09:59:20;;;;;;;15.85;8.50;;;4.10;78.30;;;;;;5049375;28;20220;-71
2023/01/18 10:01:49;;;;;;;11.25;6.97;;;4.10;78.30;;;;;;5053446;28;20200;-71
2023/01/18 10:04:24;;;;;;;11.10;7.18;;;4.10;78.40;;;;;;5042814;28;20203;-71
2023/01/18 10:06:56;;;;;;;16.58;8.23;;;4.10;78.40;;;;;;5043780;28;20208;-71
2023/01/18 10:09:27;;;;;;;12.38;7.32;;;4.10;78.50;;;;;;5046600;28;20225;-72
2023/01/18 10:11:59;;;;;;;11.95;7.60;;;4.10;78.50;;;;;;5049433;28;20217;-71
2023/01/18 10:14:41;;;;;;;13.18;7.75;;;4.10;78.40;;;;;;5047181;28;20208;-72
2023/01/18 10:17:12;;;;;;;17.58;7.97;;;4.10;78.30;;;;;;5046838;28;20220;-71
2023/01/18 10:19:40;;;;;;;9.93;6.78;;;4.10;78.50;;;;;;5051059;28;20310;-71
2023/01/18 10:22:17;;;;;;;11.80;7.53;;;4.10;78.50;;;;;;5041954;28;20665;-70
2023/01/18 10:24:52;;;;;;;15.55;7.15;;;4.10;78.30;;;;;;5046131;28;20205;-71
2023/01/18 10:27:45;;;;;;;12.50;6.88;;;4.10;78.30;;;;;;5044409;28;20199;-71
2023/01/18 10:30:27;;;;;;;11.13;7.05;;;4.10;78.50;;;;;;5043084;28;20674;-71
2023/01/18 10:32:58;;;;;;;11.98;6.82;;;4.10;78.50;;;;;;5049322;28;20736;-71
2023/01/18 10:35:33;;;;;;;13.25;7.13;;;4.10;78.50;;;;;;5053889;28;20204;-71
2023/01/18 10:38:04;;;;;;;12.40;7.60;;;4.10;78.60;;;;;;5046700;28;20246;-70
2023/01/18 10:40:34;;;;;;;11.43;7.35;;;4.10;78.60;;;;;;5045666;28;20197;-70
2023/01/18 10:43:03;;;;;;;13.50;7.95;;;4.10;78.70;;;;;;5048989;28;20795;-71
2023/01/18 10:45:34;;;;;;;15.70;8.60;;;4.20;78.80;;;;;;5044844;28;20841;-70
2023/01/18 10:48:24;;;;;;;14.32;7.45;;;4.20;78.80;;;;;;5042479;28;20333;-72
2023/01/18 10:50:54;;;;;;;12.82;7.30;;;4.20;78.70;;;;;;5040117;28;20209;-71
2023/01/18 10:53:34;;;;;;;16.95;8.32;;;4.30;78.80;;;;;;5047804;28;20200;-71
2023/01/18 10:56:04;;;;;;;15.40;8.65;;;4.30;78.80;;;;;;5047769;28;20196;-71
2023/01/18 10:58:37;;;;;;;12.45;7.30;;;4.30;78.80;;;;;;5048346;28;21005;-71
2023/01/18 11:01:14;;;;;;;13.07;7.55;;;4.30;78.80;;;;;;5051485;28;20211;-71
2023/01/18 11:03:47;;;;;;;10.82;7.10;;;4.40;78.70;;;;;;5048684;28;20696;-72
2023/01/18 11:06:16;;;;;;;12.70;7.40;;;4.30;78.80;;;;;;5044493;28;20689;-72
2023/01/18 11:08:44;;;;;;;14.25;7.50;;;4.40;78.70;;;;;;5044806;28;20223;-70
2023/01/18 11:11:18;;;;;;;19.70;8.18;;;4.40;78.70;;;;;;5047622;28;20192;-71
2023/01/18 11:13:47;;;;;;;14.57;8.07;;;4.40;78.70;;;;;;5045253;28;20254;-71
2023/01/18 11:16:19;;;;;;;16.10;7.97;;;4.40;78.60;;;;;;5048620;28;20265;-71
2023/01/18 11:18:59;;;;;;;15.63;8.27;;;4.40;78.60;;;;;;5049130;28;20279;-71
2023/01/18 11:21:39;;;;;;;11.45;7.25;;;4.40;78.80;;;;;;5045528;28;20227;-72
2023/01/18 11:24:12;;;;;;;13.43;8.45;;;4.40;78.80;;;;;;5038028;28;20347;-72
2023/01/18 11:26:52;;;;;;;14.82;8.50;;;4.40;79.00;;;;;;5041240;28;20200;-70
2023/01/18 11:29:24;;;;;;;15.82;9.15;;;4.40;78.90;;;;;;5043485;28;20216;-69
2023/01/18 11:32:02;;;;;;;18.13;8.40;;;4.50;79.20;;;;;;5044036;28;20674;-69
2023/01/18 11:34:33;;;;;;;17.23;9.50;;;4.70;79.40;;;;;;5048067;28;20200;-69
2023/01/18 11:37:02;;;;;;;17.92;10.05;;;4.80;79.40;;;;;;5048772;28;20212;-70
2023/01/18 11:39:32;;;;;;;13.30;8.35;;;4.90;79.40;;;;;;5047103;28;20238;-70
2023/01/18 11:42:22;;;;;;;13.93;10.02;;;5.00;79.40;;;;;;5049173;28;20204;-69
2023/01/18 11:45:01;;;;;;;16.35;9.77;;;5.10;79.30;;;;;;5049750;28;20200;-68
2023/01/18 11:47:37;;;;;;;17.45;9.93;;;5.20;79.30;;;;;;5046827;28;20211;-69
2023/01/18 11:50:18;;;;;;;17.83;10.07;;;5.30;79.30;;;;;;5044924;28;20258;-69
2023/01/18 11:52:53;;;;;;;18.17;10.60;;;5.30;79.30;;;;;;5043320;28;20196;-70
2023/01/18 11:55:30;;;;;;;16.42;9.77;;;5.40;79.30;;;;;;5050802;28;20200;-70
2023/01/18 11:57:59;;;;;;;15.27;9.27;;;5.50;79.10;;;;;;5050492;28;20228;-71
2023/01/18 12:00:34;;;;;;;14.85;9.55;;;5.50;79.10;;;;;;5047543;28;20189;-68
2023/01/18 12:03:25;;;;;;;15.98;8.95;;;5.60;79.10;;;;;;5048858;28;20298;-70
2023/01/18 12:05:58;;;;;;;15.50;8.85;;;5.60;79.10;;;;;;5042540;28;20211;-70
2023/01/18 12:08:49;;;;;;;13.65;8.57;;;5.70;79.00;;;;;;5042840;28;20223;-69
2023/01/18 12:11:43;;;;;;;14.10;8.57;;;5.70;78.90;;;;;;5042054;28;20629;-69
2023/01/18 12:14:25;;;;;;;13.40;8.73;;;5.70;78.90;;;;;;5044535;28;20898;-69
2023/01/18 12:17:07;;;;;;;14.32;9.18;;;5.70;78.90;;;;;;5042672;28;20219;-69
2023/01/18 12:19:57;;;;;;;13.60;8.60;;;5.70;78.70;;;;;;5054518;28;20231;-68
2023/01/18 12:23:01;;;;;;;14.00;9.30;;;5.70;78.70;;;;;;5046881;28;20201;-69
2023/01/18 12:25:55;;;;;;;14.60;10.00;;;5.70;78.60;;;;;;5050226;28;20275;-69
2023/01/18 12:28:50;;;;;;;14.35;9.50;;;5.70;78.60;;;;;;5048679;28;20388;-68
2023/01/18 12:31:30;;;;;;;13.80;8.55;;;5.70;78.60;;;;;;5046919;28;20697;-68
2023/01/18 12:34:05;;;;;;;17.70;10.50;;;5.70;78.60;;;;;;5047354;28;20307;-68
2023/01/18 12:36:53;;;;;;;15.15;10.05;;;5.70;78.40;;;;;;5044254;28;20795;-69
2023/01/18 12:39:36;;;;;;;16.35;9.50;;;5.70;78.40;;;;;;5049882;28;20643;-68
2023/01/18 12:42:09;;;;;;;15.27;9.88;;;5.60;78.40;;;;;;5047241;28;20203;-69
2023/01/18 12:44:53;;;;;;;13.50;8.48;;;5.60;78.40;;;;;;5051362;28;20209;-69
2023/01/18 12:47:35;;;;;;;15.05;9.77;;;5.60;78.40;;;;;;5050558;28;20234;-69
2023/01/18 12:50:12;;;;;;;15.68;10.25;;;5.60;78.40;;;;;;5048118;28;20201;-68
2023/01/18 12:52:47;;;;;;;22.77;9.90;;;5.50;78.30;;;;;;5046202;28;20819;-69
2023/01/18 12:55:20;;;;;;;18.23;9.90;;;5.50;78.30;;;;;;5048985;28;20215;-68
2023/01/18 12:57:50;;;;;;;16.23;8.88;;;5.50;78.40;;;;;;5042753;28;20228;-68
2023/01/18 13:00:23;;;;;;;16.33;9.60;;;5.50;78.30;;;;;;5048058;28;20196;-69
2023/01/18 13:02:56;;;;;;;16.17;9.35;;;5.50;78.30;;;;;;5051536;28;20216;-68
2023/01/18 13:05:33;;;;;;;15.40;9.40;;;5.50;78.20;;;;;;5053526;28;20200;-68
2023/01/18 13:08:08;;;;;;;14.60;8.55;;;5.40;78.20;;;;;;5049278;28;20696;-68
2023/01/18 13:10:37;;;;;;;15.20;9.10;;;5.40;78.20;;;;;;5052291;28;20898;-69
2023/01/18 13:13:06;;;;;;;13.02;7.70;;;5.30;78.20;;;;;;5051914;28;20209;-69
2023/01/18 13:15:41;;;;;;;13.70;8.95;;;5.30;78.20;;;;;;5050499;28;20195;-68
2023/01/18 13:18:16;;;;;;;12.93;8.43;;;5.30;78.10;;;;;;5048721;28;20231;-68
2023/01/18 13:21:01;;;;;;;13.13;9.00;;;5.30;78.20;;;;;;5041079;28;20208;-68
2023/01/18 13:23:43;;;;;;;13.63;8.82;;;5.30;78.10;;;;;;5050215;28;20227;-68
2023/01/18 13:26:22;;;;;;;17.73;9.20;;;5.20;78.00;;;;;;5054726;28;20219;-70
2023/01/18 13:29:06;;;;;;;20.42;10.05;;;5.20;78.00;;;;;;5043980;28;20236;-67
2023/01/18 13:31:34;;;;;;;19.30;9.75;;;5.20;78.10;;;;;;5046947;28;20196;-70
2023/01/18 13:34:02;;;;;;;15.93;9.05;;;5.20;78.00;;;;;;5049300;28;20565;-68
2023/01/18 13:36:43;;;;;;;15.63;8.88;;;5.10;78.00;;;;;;5046254;28;20212;-69
2023/01/18 13:39:16;;;;;;;13.55;8.60;;;5.10;78.00;;;;;;5046437;28;20231;-69
2023/01/18 13:42:21;;;;;;;16.92;9.13;;;5.10;78.00;;;;;;5054076;28;20196;-69
2023/01/18 13:45:05;;;;;;;16.92;8.25;;;5.10;77.90;;;;;;5053212;28;20203;-68
2023/01/18 13:47:49;;;;;;;18.20;8.60;;;5.10;77.90;;;;;;5052200;28;20203;-69
2023/01/18 13:50:46;;;;;;;19.17;8.63;;;5.10;78.00;;;;;;5053271;28;20375;-67
2023/01/18 13:53:25;;;;;;;13.88;8.10;;;5.10;77.90;;;;;;5048608;28;20208;-68